sensor_id;sensor_type;location;lat;lon;timestamp;temperature;humidity
39345;DHT22;25061;51.954;6.996;2022-12-29T00:02:08;10.30;99.90
39345;DHT22;25061;51.954;6.996;2022-12-29T00:04:34;10.30;99.90
39345;DHT22;25061;51.954;6.996;2022-12-29T00:06:59;10.20;99.90
39345;DHT22;25061;51.954;6.996;2022-12-29T00:09:25;10.30;99.90
39345;DHT22;25061;51.954;6.996;2022-12-29T00:11:51;10.30;99.90
39345;DHT22;25061;51.954;6.996;2022-12-29T00:14:17;10.30;99.90
39345;DHT22;25061;51.954;6.996;2022-12-29T00:17:01;10.20;99.90
39345;DHT22;25061;51.954;6.996;2022-12-29T00:19:27;10.30;99.90
39345;DHT22;25061;51.954;6.996;2022-12-29T00:22:13;10.30;99.90
39345;DHT22;25061;51.954;6.996;2022-12-29T00:24:57;10.30;99.90
39345;DHT22;25061;51.954;6.996;2022-12-29T00:27:42;10.30;99.90
39345;DHT22;25061;51.954;6.996;2022-12-29T00:30:26;10.30;99.90
39345;DHT22;25061;51.954;6.996;2022-12-29T00:33:18;10.40;99.90
39345;DHT22;25061;51.954;6.996;2022-12-29T00:38:56;10.50;99.90
39345;DHT22;25061;51.954;6.996;2022-12-29T00:41:41;10.50;99.90
39345;DHT22;25061;51.954;6.996;2022-12-29T00:44:25;10.50;99.90
39345;DHT22;25061;51.954;6.996;2022-12-29T00:46:51;10.40;99.90
39345;DHT22;25061;51.954;6.996;2022-12-29T00:49:16;10.30;99.90
39345;DHT22;25061;51.954;6.996;2022-12-29T00:52:11;10.30;99.90
39345;DHT22;25061;51.954;6.996;2022-12-29T00:54:39;10.30;99.90
39345;DHT22;25061;51.954;6.996;2022-12-29T00:57:07;10.30;99.90
39345;DHT22;25061;51.954;6.996;2022-12-29T00:59:37;10.30;99.90
39345;DHT22;25061;51.954;6.996;2022-12-29T01:02:03;10.30;99.90
39345;DHT22;25061;51.954;6.996;2022-12-29T01:04:28;10.20;99.90
39345;DHT22;25061;51.954;6.996;2022-12-29T01:06:54;10.20;99.90
39345;DHT22;25061;51.954;6.996;2022-12-29T01:09:20;10.10;99.90
39345;DHT22;25061;51.954;6.996;2022-12-29T01:12:05;10.10;99.90
39345;DHT22;25061;51.954;6.996;2022-12-29T01:14:31;10.00;99.90
39345;DHT22;25061;51.954;6.996;2022-12-29T01:16:57;10.10;99.90
39345;DHT22;25061;51.954;6.996;2022-12-29T01:19:23;9.90;99.90
39345;DHT22;25061;51.954;6.996;2022-12-29T01:21:48;9.90;99.90
39345;DHT22;25061;51.954;6.996;2022-12-29T01:24:16;10.00;99.90
39345;DHT22;25061;51.954;6.996;2022-12-29T01:26:42;10.00;99.90
39345;DHT22;25061;51.954;6.996;2022-12-29T01:29:08;10.10;99.90
39345;DHT22;25061;51.954;6.996;2022-12-29T01:31:34;10.00;99.90
39345;DHT22;25061;51.954;6.996;2022-12-29T01:33:59;10.00;99.90
39345;DHT22;25061;51.954;6.996;2022-12-29T01:36:25;10.10;99.90
39345;DHT22;25061;51.954;6.996;2022-12-29T01:38:51;10.10;99.90
39345;DHT22;25061;51.954;6.996;2022-12-29T01:41:17;10.20;99.90
39345;DHT22;25061;51.954;6.996;2022-12-29T01:43:53;10.10;99.90
39345;DHT22;25061;51.954;6.996;2022-12-29T01:46:26;10.20;99.90
39345;DHT22;25061;51.954;6.996;2022-12-29T01:49:09;10.10;99.90
39345;DHT22;25061;51.954;6.996;2022-12-29T01:51:40;10.00;99.90
39345;DHT22;25061;51.954;6.996;2022-12-29T01:54:11;10.00;99.90
39345;DHT22;25061;51.954;6.996;2022-12-29T01:56:39;10.10;99.90
39345;DHT22;25061;51.954;6.996;2022-12-29T01:59:10;10.10;99.90
39345;DHT22;25061;51.954;6.996;2022-12-29T02:01:38;10.10;99.90
39345;DHT22;25061;51.954;6.996;2022-12-29T02:04:04;10.20;99.90
39345;DHT22;25061;51.954;6.996;2022-12-29T02:06:34;10.30;99.90
39345;DHT22;25061;51.954;6.996;2022-12-29T02:09:02;10.30;99.90
39345;DHT22;25061;51.954;6.996;2022-12-29T02:11:29;10.30;99.90
39345;DHT22;25061;51.954;6.996;2022-12-29T02:13:55;10.20;99.90
39345;DHT22;25061;51.954;6.996;2022-12-29T02:22:06;10.30;99.90
39345;DHT22;25061;51.954;6.996;2022-12-29T02:24:54;10.30;99.90
39345;DHT22;25061;51.954;6.996;2022-12-29T02:27:51;10.40;99.90
39345;DHT22;25061;51.954;6.996;2022-12-29T02:36:23;10.40;99.90
39345;DHT22;25061;51.954;6.996;2022-12-29T02:46:58;10.70;99.90
39345;DHT22;25061;51.954;6.996;2022-12-29T02:50:02;10.60;99.90
39345;DHT22;25061;51.954;6.996;2022-12-29T02:52:35;10.60;99.90
39345;DHT22;25061;51.954;6.996;2022-12-29T02:55:02;10.70;99.90
39345;DHT22;25061;51.954;6.996;2022-12-29T02:57:31;10.60;99.90
39345;DHT22;25061;51.954;6.996;2022-12-29T03:00:09;10.70;99.90
39345;DHT22;25061;51.954;6.996;2022-12-29T03:09:43;10.80;99.90
39345;DHT22;25061;51.954;6.996;2022-12-29T03:15:00;10.80;99.90
39345;DHT22;25061;51.954;6.996;2022-12-29T03:17:56;11.00;99.90
39345;DHT22;25061;51.954;6.996;2022-12-29T03:20:32;10.90;99.90
39345;DHT22;25061;51.954;6.996;2022-12-29T03:23:05;10.90;99.90
39345;DHT22;25061;51.954;6.996;2022-12-29T03:25:47;10.90;99.90
39345;DHT22;25061;51.954;6.996;2022-12-29T03:28:36;10.80;99.90
39345;DHT22;25061;51.954;6.996;2022-12-29T03:31:04;10.80;99.90
39345;DHT22;25061;51.954;6.996;2022-12-29T03:33:32;10.90;99.90
39345;DHT22;25061;51.954;6.996;2022-12-29T03:36:02;10.90;99.90
39345;DHT22;25061;51.954;6.996;2022-12-29T03:38:44;10.80;99.90
39345;DHT22;25061;51.954;6.996;2022-12-29T03:41:15;10.90;99.90
39345;DHT22;25061;51.954;6.996;2022-12-29T03:43:42;10.90;99.90
39345;DHT22;25061;51.954;6.996;2022-12-29T03:46:07;10.90;99.90
39345;DHT22;25061;51.954;6.996;2022-12-29T03:48:33;10.80;99.90
39345;DHT22;25061;51.954;6.996;2022-12-29T03:50:59;10.90;99.90
39345;DHT22;25061;51.954;6.996;2022-12-29T03:53:24;10.90;99.90
39345;DHT22;25061;51.954;6.996;2022-12-29T03:55:50;10.90;99.90
39345;DHT22;25061;51.954;6.996;2022-12-29T03:58:16;10.80;99.90
39345;DHT22;25061;51.954;6.996;2022-12-29T04:00:41;10.80;99.90
39345;DHT22;25061;51.954;6.996;2022-12-29T04:03:07;10.80;99.90
39345;DHT22;25061;51.954;6.996;2022-12-29T04:05:32;10.90;99.90
39345;DHT22;25061;51.954;6.996;2022-12-29T04:07:58;10.80;99.90
39345;DHT22;25061;51.954;6.996;2022-12-29T04:10:23;10.70;99.90
39345;DHT22;25061;51.954;6.996;2022-12-29T04:12:51;10.70;99.90
39345;DHT22;25061;51.954;6.996;2022-12-29T04:15:17;10.60;99.90
39345;DHT22;25061;51.954;6.996;2022-12-29T04:17:42;10.70;99.90
39345;DHT22;25061;51.954;6.996;2022-12-29T04:20:08;10.60;99.90
39345;DHT22;25061;51.954;6.996;2022-12-29T04:23:05;10.60;99.90
39345;DHT22;25061;51.954;6.996;2022-12-29T04:25:32;10.50;99.90
39345;DHT22;25061;51.954;6.996;2022-12-29T04:27:58;10.40;99.90
39345;DHT22;25061;51.954;6.996;2022-12-29T04:30:23;10.30;99.90
39345;DHT22;25061;51.954;6.996;2022-12-29T04:32:49;10.30;99.90
39345;DHT22;25061;51.954;6.996;2022-12-29T04:35:15;10.20;99.90
39345;DHT22;25061;51.954;6.996;2022-12-29T04:37:40;10.10;99.90
39345;DHT22;25061;51.954;6.996;2022-12-29T04:40:06;10.00;99.90
39345;DHT22;25061;51.954;6.996;2022-12-29T04:42:32;10.00;99.90
39345;DHT22;25061;51.954;6.996;2022-12-29T04:44:58;9.90;99.90
39345;DHT22;25061;51.954;6.996;2022-12-29T04:47:23;9.90;99.90
39345;DHT22;25061;51.954;6.996;2022-12-29T04:49:49;9.80;99.90
39345;DHT22;25061;51.954;6.996;2022-12-29T04:52:14;9.70;99.90
39345;DHT22;25061;51.954;6.996;2022-12-29T04:54:40;9.70;99.90
39345;DHT22;25061;51.954;6.996;2022-12-29T04:57:05;9.70;99.90
39345;DHT22;25061;51.954;6.996;2022-12-29T04:59:31;9.60;99.90
39345;DHT22;25061;51.954;6.996;2022-12-29T05:01:57;9.50;99.90
39345;DHT22;25061;51.954;6.996;2022-12-29T05:04:22;9.50;99.90
39345;DHT22;25061;51.954;6.996;2022-12-29T05:06:48;9.50;99.90
39345;DHT22;25061;51.954;6.996;2022-12-29T05:09:13;9.40;99.90
39345;DHT22;25061;51.954;6.996;2022-12-29T05:11:39;9.40;99.90
39345;DHT22;25061;51.954;6.996;2022-12-29T05:14:04;9.40;99.90
39345;DHT22;25061;51.954;6.996;2022-12-29T05:16:30;9.40;99.90
39345;DHT22;25061;51.954;6.996;2022-12-29T05:18:55;9.40;99.90
39345;DHT22;25061;51.954;6.996;2022-12-29T05:21:21;9.40;99.90
39345;DHT22;25061;51.954;6.996;2022-12-29T05:23:46;9.40;99.90
39345;DHT22;25061;51.954;6.996;2022-12-29T05:26:12;9.40;99.90
39345;DHT22;25061;51.954;6.996;2022-12-29T05:28:37;9.40;99.90
39345;DHT22;25061;51.954;6.996;2022-12-29T05:31:03;9.40;99.90
39345;DHT22;25061;51.954;6.996;2022-12-29T05:33:29;9.40;99.90
39345;DHT22;25061;51.954;6.996;2022-12-29T05:35:54;9.30;99.90
39345;DHT22;25061;51.954;6.996;2022-12-29T05:38:20;9.30;99.90
39345;DHT22;25061;51.954;6.996;2022-12-29T05:40:45;9.30;99.90
39345;DHT22;25061;51.954;6.996;2022-12-29T05:43:11;9.30;99.90
39345;DHT22;25061;51.954;6.996;2022-12-29T05:45:36;9.40;99.90
39345;DHT22;25061;51.954;6.996;2022-12-29T05:48:02;9.30;99.90
39345;DHT22;25061;51.954;6.996;2022-12-29T05:50:28;9.30;99.90
39345;DHT22;25061;51.954;6.996;2022-12-29T05:52:54;9.40;99.90
39345;DHT22;25061;51.954;6.996;2022-12-29T05:55:19;9.30;99.90
39345;DHT22;25061;51.954;6.996;2022-12-29T05:57:45;9.30;99.90
39345;DHT22;25061;51.954;6.996;2022-12-29T06:00:11;9.20;99.90
39345;DHT22;25061;51.954;6.996;2022-12-29T06:02:36;9.20;99.90
39345;DHT22;25061;51.954;6.996;2022-12-29T06:05:02;9.30;99.90
39345;DHT22;25061;51.954;6.996;2022-12-29T06:07:28;9.20;99.90
39345;DHT22;25061;51.954;6.996;2022-12-29T06:09:53;9.20;99.90
39345;DHT22;25061;51.954;6.996;2022-12-29T06:12:19;9.20;99.90
39345;DHT22;25061;51.954;6.996;2022-12-29T06:14:44;9.20;99.90
39345;DHT22;25061;51.954;6.996;2022-12-29T06:17:10;9.20;99.90
39345;DHT22;25061;51.954;6.996;2022-12-29T06:19:35;9.30;99.90
39345;DHT22;25061;51.954;6.996;2022-12-29T06:22:01;9.20;99.90
39345;DHT22;25061;51.954;6.996;2022-12-29T06:24:27;9.20;99.90
39345;DHT22;25061;51.954;6.996;2022-12-29T06:26:52;9.20;99.90
39345;DHT22;25061;51.954;6.996;2022-12-29T06:29:18;9.20;99.90
39345;DHT22;25061;51.954;6.996;2022-12-29T06:31:45;9.40;99.90
39345;DHT22;25061;51.954;6.996;2022-12-29T06:34:12;9.30;99.90
39345;DHT22;25061;51.954;6.996;2022-12-29T06:36:38;9.20;99.90
39345;DHT22;25061;51.954;6.996;2022-12-29T06:39:04;9.20;99.90
39345;DHT22;25061;51.954;6.996;2022-12-29T06:41:29;9.20;99.90
39345;DHT22;25061;51.954;6.996;2022-12-29T06:43:55;9.20;99.90
39345;DHT22;25061;51.954;6.996;2022-12-29T06:46:21;9.20;99.90
39345;DHT22;25061;51.954;6.996;2022-12-29T06:48:46;9.20;99.90
39345;DHT22;25061;51.954;6.996;2022-12-29T06:51:12;9.10;99.90
39345;DHT22;25061;51.954;6.996;2022-12-29T06:53:37;9.10;99.90
39345;DHT22;25061;51.954;6.996;2022-12-29T06:56:03;9.10;99.90
39345;DHT22;25061;51.954;6.996;2022-12-29T06:58:29;9.10;99.90
39345;DHT22;25061;51.954;6.996;2022-12-29T07:00:54;9.00;99.90
39345;DHT22;25061;51.954;6.996;2022-12-29T07:03:20;9.00;99.90
39345;DHT22;25061;51.954;6.996;2022-12-29T07:05:45;9.10;99.90
39345;DHT22;25061;51.954;6.996;2022-12-29T07:08:11;9.10;99.90
39345;DHT22;25061;51.954;6.996;2022-12-29T07:10:37;9.20;99.90
39345;DHT22;25061;51.954;6.996;2022-12-29T07:13:02;9.20;99.90
39345;DHT22;25061;51.954;6.996;2022-12-29T07:15:28;9.10;99.90
39345;DHT22;25061;51.954;6.996;2022-12-29T07:17:53;9.20;99.90
39345;DHT22;25061;51.954;6.996;2022-12-29T07:20:19;9.30;99.90
39345;DHT22;25061;51.954;6.996;2022-12-29T07:22:44;9.20;99.90
39345;DHT22;25061;51.954;6.996;2022-12-29T07:25:10;9.20;99.90
39345;DHT22;25061;51.954;6.996;2022-12-29T07:27:35;9.20;99.90
39345;DHT22;25061;51.954;6.996;2022-12-29T07:30:01;9.20;99.90
39345;DHT22;25061;51.954;6.996;2022-12-29T07:32:26;9.30;99.90
39345;DHT22;25061;51.954;6.996;2022-12-29T07:34:52;9.20;99.90
39345;DHT22;25061;51.954;6.996;2022-12-29T07:37:18;9.20;99.90
39345;DHT22;25061;51.954;6.996;2022-12-29T07:39:44;9.20;99.90
39345;DHT22;25061;51.954;6.996;2022-12-29T07:42:09;9.20;99.90
39345;DHT22;25061;51.954;6.996;2022-12-29T07:44:35;9.20;99.90
39345;DHT22;25061;51.954;6.996;2022-12-29T07:47:02;9.10;99.90
39345;DHT22;25061;51.954;6.996;2022-12-29T07:49:27;9.20;99.90
39345;DHT22;25061;51.954;6.996;2022-12-29T07:51:53;9.20;99.90
39345;DHT22;25061;51.954;6.996;2022-12-29T07:54:18;9.20;99.90
39345;DHT22;25061;51.954;6.996;2022-12-29T07:56:44;9.20;99.90
39345;DHT22;25061;51.954;6.996;2022-12-29T07:59:10;9.20;99.90
39345;DHT22;25061;51.954;6.996;2022-12-29T08:01:37;9.20;99.90
39345;DHT22;25061;51.954;6.996;2022-12-29T08:04:03;9.30;99.90
39345;DHT22;25061;51.954;6.996;2022-12-29T08:06:29;9.30;99.90
39345;DHT22;25061;51.954;6.996;2022-12-29T08:08:57;9.30;99.90
39345;DHT22;25061;51.954;6.996;2022-12-29T08:11:23;9.30;99.90
39345;DHT22;25061;51.954;6.996;2022-12-29T08:13:49;9.40;99.90
39345;DHT22;25061;51.954;6.996;2022-12-29T08:16:14;9.50;99.90
39345;DHT22;25061;51.954;6.996;2022-12-29T08:18:40;9.60;99.90
39345;DHT22;25061;51.954;6.996;2022-12-29T08:21:06;10.30;99.90
39345;DHT22;25061;51.954;6.996;2022-12-29T08:23:31;10.90;99.90
39345;DHT22;25061;51.954;6.996;2022-12-29T08:26:04;11.50;99.90
39345;DHT22;25061;51.954;6.996;2022-12-29T08:28:31;10.60;99.90
39345;DHT22;25061;51.954;6.996;2022-12-29T08:30:58;10.10;99.90
39345;DHT22;25061;51.954;6.996;2022-12-29T08:33:24;10.20;99.90
39345;DHT22;25061;51.954;6.996;2022-12-29T08:35:50;11.10;99.90
39345;DHT22;25061;51.954;6.996;2022-12-29T08:38:16;11.70;99.90
39345;DHT22;25061;51.954;6.996;2022-12-29T08:40:42;12.10;99.90
39345;DHT22;25061;51.954;6.996;2022-12-29T08:43:09;12.80;99.90
39345;DHT22;25061;51.954;6.996;2022-12-29T08:45:35;13.00;99.90
39345;DHT22;25061;51.954;6.996;2022-12-29T08:48:01;13.10;99.90
39345;DHT22;25061;51.954;6.996;2022-12-29T08:50:26;13.30;99.90
39345;DHT22;25061;51.954;6.996;2022-12-29T08:52:52;13.80;99.90
39345;DHT22;25061;51.954;6.996;2022-12-29T08:55:17;13.20;99.90
39345;DHT22;25061;51.954;6.996;2022-12-29T08:57:43;11.30;99.90
39345;DHT22;25061;51.954;6.996;2022-12-29T09:00:09;10.60;99.90
39345;DHT22;25061;51.954;6.996;2022-12-29T09:02:35;10.90;99.90
39345;DHT22;25061;51.954;6.996;2022-12-29T09:05:00;10.40;99.90
39345;DHT22;25061;51.954;6.996;2022-12-29T09:07:26;10.20;99.90
39345;DHT22;25061;51.954;6.996;2022-12-29T09:09:51;10.20;99.90
39345;DHT22;25061;51.954;6.996;2022-12-29T09:12:17;10.10;99.90
39345;DHT22;25061;51.954;6.996;2022-12-29T09:14:43;10.10;99.90
39345;DHT22;25061;51.954;6.996;2022-12-29T09:17:11;10.10;99.90
39345;DHT22;25061;51.954;6.996;2022-12-29T09:19:55;10.00;99.90
39345;DHT22;25061;51.954;6.996;2022-12-29T09:22:20;10.10;99.90
39345;DHT22;25061;51.954;6.996;2022-12-29T09:24:46;10.20;99.90
39345;DHT22;25061;51.954;6.996;2022-12-29T09:27:11;10.10;99.90
39345;DHT22;25061;51.954;6.996;2022-12-29T09:29:37;10.10;99.90
39345;DHT22;25061;51.954;6.996;2022-12-29T09:32:03;10.00;99.90
39345;DHT22;25061;51.954;6.996;2022-12-29T09:34:28;10.00;99.90
39345;DHT22;25061;51.954;6.996;2022-12-29T09:36:54;10.50;99.90
39345;DHT22;25061;51.954;6.996;2022-12-29T09:39:21;10.60;99.90
39345;DHT22;25061;51.954;6.996;2022-12-29T09:47:11;10.50;99.90
39345;DHT22;25061;51.954;6.996;2022-12-29T09:50:27;10.50;99.90
39345;DHT22;25061;51.954;6.996;2022-12-29T09:52:37;10.40;99.90
39345;DHT22;25061;51.954;6.996;2022-12-29T09:55:13;10.80;99.90
39345;DHT22;25061;51.954;6.996;2022-12-29T09:58:00;10.80;99.90
39345;DHT22;25061;51.954;6.996;2022-12-29T10:03:14;10.90;99.90
39345;DHT22;25061;51.954;6.996;2022-12-29T10:05:48;11.10;99.90
39345;DHT22;25061;51.954;6.996;2022-12-29T10:10:58;11.30;99.90
39345;DHT22;25061;51.954;6.996;2022-12-29T10:16:18;11.40;99.90
39345;DHT22;25061;51.954;6.996;2022-12-29T10:21:50;11.10;99.90
39345;DHT22;25061;51.954;6.996;2022-12-29T10:24:20;11.10;99.90
39345;DHT22;25061;51.954;6.996;2022-12-29T10:26:47;11.00;99.90
39345;DHT22;25061;51.954;6.996;2022-12-29T10:29:20;10.90;99.90
39345;DHT22;25061;51.954;6.996;2022-12-29T10:32:34;10.80;99.90
39345;DHT22;25061;51.954;6.996;2022-12-29T10:34:58;10.70;99.90
39345;DHT22;25061;51.954;6.996;2022-12-29T10:40:16;10.60;99.90
39345;DHT22;25061;51.954;6.996;2022-12-29T10:42:47;10.60;99.90
39345;DHT22;25061;51.954;6.996;2022-12-29T10:45:16;10.50;99.90
39345;DHT22;25061;51.954;6.996;2022-12-29T10:48:09;10.50;99.90
39345;DHT22;25061;51.954;6.996;2022-12-29T10:50:42;10.50;99.90
39345;DHT22;25061;51.954;6.996;2022-12-29T10:53:15;10.50;99.90
39345;DHT22;25061;51.954;6.996;2022-12-29T10:55:43;10.50;99.90
39345;DHT22;25061;51.954;6.996;2022-12-29T10:58:12;10.50;99.90
39345;DHT22;25061;51.954;6.996;2022-12-29T11:00:39;10.40;99.90
39345;DHT22;25061;51.954;6.996;2022-12-29T11:06:18;10.20;99.90
39345;DHT22;25061;51.954;6.996;2022-12-29T11:08:57;10.10;99.90
39345;DHT22;25061;51.954;6.996;2022-12-29T11:11:35;10.00;99.90
39345;DHT22;25061;51.954;6.996;2022-12-29T11:14:28;9.90;99.90
39345;DHT22;25061;51.954;6.996;2022-12-29T11:17:03;9.70;99.90
39345;DHT22;25061;51.954;6.996;2022-12-29T11:19:32;9.60;99.90
39345;DHT22;25061;51.954;6.996;2022-12-29T11:22:19;9.60;99.90
39345;DHT22;25061;51.954;6.996;2022-12-29T11:24:46;9.50;99.90
39345;DHT22;25061;51.954;6.996;2022-12-29T11:27:22;9.50;99.90
39345;DHT22;25061;51.954;6.996;2022-12-29T11:29:50;9.40;99.90
39345;DHT22;25061;51.954;6.996;2022-12-29T11:32:26;9.50;99.90
39345;DHT22;25061;51.954;6.996;2022-12-29T11:34:52;9.40;99.90
39345;DHT22;25061;51.954;6.996;2022-12-29T11:37:29;9.50;99.90
39345;DHT22;25061;51.954;6.996;2022-12-29T11:40:32;9.70;99.90
39345;DHT22;25061;51.954;6.996;2022-12-29T11:43:00;9.60;99.90
39345;DHT22;25061;51.954;6.996;2022-12-29T11:45:30;9.60;99.90
39345;DHT22;25061;51.954;6.996;2022-12-29T11:48:16;9.70;99.90
39345;DHT22;25061;51.954;6.996;2022-12-29T11:50:50;9.70;99.90
39345;DHT22;25061;51.954;6.996;2022-12-29T11:53:41;9.80;99.90
39345;DHT22;25061;51.954;6.996;2022-12-29T11:56:17;9.80;99.90
39345;DHT22;25061;51.954;6.996;2022-12-29T11:58:44;9.80;99.90
39345;DHT22;25061;51.954;6.996;2022-12-29T12:01:28;9.80;99.90
39345;DHT22;25061;51.954;6.996;2022-12-29T12:03:59;9.80;99.90
39345;DHT22;25061;51.954;6.996;2022-12-29T12:06:26;9.90;99.90
39345;DHT22;25061;51.954;6.996;2022-12-29T12:09:20;9.80;99.90
39345;DHT22;25061;51.954;6.996;2022-12-29T12:11:51;9.90;99.90
39345;DHT22;25061;51.954;6.996;2022-12-29T12:14:33;9.90;99.90
39345;DHT22;25061;51.954;6.996;2022-12-29T12:17:06;9.90;99.90
39345;DHT22;25061;51.954;6.996;2022-12-29T12:19:49;9.90;99.90
39345;DHT22;25061;51.954;6.996;2022-12-29T12:27:51;9.90;99.90
39345;DHT22;25061;51.954;6.996;2022-12-29T12:30:24;9.90;99.90
39345;DHT22;25061;51.954;6.996;2022-12-29T12:38:51;9.90;99.90
39345;DHT22;25061;51.954;6.996;2022-12-29T12:48:49;10.20;99.90
39345;DHT22;25061;51.954;6.996;2022-12-29T12:51:33;10.20;99.90
39345;DHT22;25061;51.954;6.996;2022-12-29T12:57:06;10.30;99.90
39345;DHT22;25061;51.954;6.996;2022-12-29T12:59:47;10.40;99.90
39345;DHT22;25061;51.954;6.996;2022-12-29T13:10:32;10.40;99.90
39345;DHT22;25061;51.954;6.996;2022-12-29T13:18:37;10.20;99.90
39345;DHT22;25061;51.954;6.996;2022-12-29T13:21:10;10.10;99.90
39345;DHT22;25061;51.954;6.996;2022-12-29T13:23:41;10.00;99.90
39345;DHT22;25061;51.954;6.996;2022-12-29T13:26:22;10.00;99.90
39345;DHT22;25061;51.954;6.996;2022-12-29T13:37:16;9.90;99.90
39345;DHT22;25061;51.954;6.996;2022-12-29T13:39:49;9.90;99.90
39345;DHT22;25061;51.954;6.996;2022-12-29T13:42:16;9.90;99.90
39345;DHT22;25061;51.954;6.996;2022-12-29T13:45:02;9.90;99.90
39345;DHT22;25061;51.954;6.996;2022-12-29T13:50:28;9.90;99.90
39345;DHT22;25061;51.954;6.996;2022-12-29T13:55:37;9.90;99.90
39345;DHT22;25061;51.954;6.996;2022-12-29T13:58:12;9.90;99.90
39345;DHT22;25061;51.954;6.996;2022-12-29T14:00:53;9.90;99.90
39345;DHT22;25061;51.954;6.996;2022-12-29T14:03:51;9.90;99.90
39345;DHT22;25061;51.954;6.996;2022-12-29T14:08:46;9.90;99.90
39345;DHT22;25061;51.954;6.996;2022-12-29T14:11:15;9.90;99.90
39345;DHT22;25061;51.954;6.996;2022-12-29T14:13:44;9.90;99.90
39345;DHT22;25061;51.954;6.996;2022-12-29T14:18:50;9.90;99.90
39345;DHT22;25061;51.954;6.996;2022-12-29T14:23:47;9.90;99.90
39345;DHT22;25061;51.954;6.996;2022-12-29T14:28:55;10.00;99.90
39345;DHT22;25061;51.954;6.996;2022-12-29T14:39:41;9.90;99.90
39345;DHT22;25061;51.954;6.996;2022-12-29T14:44:57;9.90;99.90
39345;DHT22;25061;51.954;6.996;2022-12-29T14:52:53;9.80;99.90
39345;DHT22;25061;51.954;6.996;2022-12-29T14:58:43;9.30;99.90
39345;DHT22;25061;51.954;6.996;2022-12-29T15:03:48;9.20;99.90
39345;DHT22;25061;51.954;6.996;2022-12-29T15:06:18;9.00;99.90
39345;DHT22;25061;51.954;6.996;2022-12-29T15:09:12;8.90;99.90
39345;DHT22;25061;51.954;6.996;2022-12-29T15:11:48;8.80;99.90
39345;DHT22;25061;51.954;6.996;2022-12-29T15:15:29;8.60;99.90
39345;DHT22;25061;51.954;6.996;2022-12-29T15:17:35;8.50;99.90
39345;DHT22;25061;51.954;6.996;2022-12-29T15:20:29;8.40;99.90
39345;DHT22;25061;51.954;6.996;2022-12-29T15:22:58;8.40;99.90
39345;DHT22;25061;51.954;6.996;2022-12-29T15:25:25;8.30;99.90
39345;DHT22;25061;51.954;6.996;2022-12-29T15:28:00;8.40;99.90
39345;DHT22;25061;51.954;6.996;2022-12-29T15:30:26;8.30;99.90
39345;DHT22;25061;51.954;6.996;2022-12-29T15:32:52;8.30;99.90
39345;DHT22;25061;51.954;6.996;2022-12-29T15:35:33;8.30;99.90
39345;DHT22;25061;51.954;6.996;2022-12-29T15:38:22;8.30;99.90
39345;DHT22;25061;51.954;6.996;2022-12-29T15:41:02;8.30;99.90
39345;DHT22;25061;51.954;6.996;2022-12-29T15:44:08;8.30;99.90
39345;DHT22;25061;51.954;6.996;2022-12-29T15:46:35;8.40;99.90
39345;DHT22;25061;51.954;6.996;2022-12-29T15:49:05;8.40;99.90
39345;DHT22;25061;51.954;6.996;2022-12-29T15:51:35;8.40;99.90
39345;DHT22;25061;51.954;6.996;2022-12-29T15:54:02;8.40;99.90
39345;DHT22;25061;51.954;6.996;2022-12-29T15:56:29;8.40;99.90
39345;DHT22;25061;51.954;6.996;2022-12-29T15:58:56;8.40;99.90
39345;DHT22;25061;51.954;6.996;2022-12-29T16:04:18;8.40;99.90
39345;DHT22;25061;51.954;6.996;2022-12-29T16:09:34;8.40;99.90
39345;DHT22;25061;51.954;6.996;2022-12-29T16:12:21;8.40;99.90
39345;DHT22;25061;51.954;6.996;2022-12-29T16:14:52;8.40;99.90
39345;DHT22;25061;51.954;6.996;2022-12-29T16:17:26;8.40;99.90
39345;DHT22;25061;51.954;6.996;2022-12-29T16:20:13;8.40;99.90
39345;DHT22;25061;51.954;6.996;2022-12-29T16:22:45;8.40;99.90
39345;DHT22;25061;51.954;6.996;2022-12-29T16:25:28;8.40;99.90
39345;DHT22;25061;51.954;6.996;2022-12-29T16:27:57;8.50;99.90
39345;DHT22;25061;51.954;6.996;2022-12-29T16:30:26;8.50;99.90
39345;DHT22;25061;51.954;6.996;2022-12-29T16:32:56;8.40;99.90
39345;DHT22;25061;51.954;6.996;2022-12-29T16:35:27;8.40;99.90
39345;DHT22;25061;51.954;6.996;2022-12-29T16:38:15;8.50;99.90
39345;DHT22;25061;51.954;6.996;2022-12-29T16:40:51;8.50;99.90
39345;DHT22;25061;51.954;6.996;2022-12-29T16:43:24;8.50;99.90
39345;DHT22;25061;51.954;6.996;2022-12-29T16:48:32;8.50;99.90
39345;DHT22;25061;51.954;6.996;2022-12-29T16:51:12;8.50;99.90
39345;DHT22;25061;51.954;6.996;2022-12-29T16:53:40;8.60;99.90
39345;DHT22;25061;51.954;6.996;2022-12-29T16:56:15;8.50;99.90
39345;DHT22;25061;51.954;6.996;2022-12-29T16:58:46;8.60;99.90
39345;DHT22;25061;51.954;6.996;2022-12-29T17:01:12;8.60;99.90
39345;DHT22;25061;51.954;6.996;2022-12-29T17:03:43;8.50;99.90
39345;DHT22;25061;51.954;6.996;2022-12-29T17:06:19;8.50;99.90
39345;DHT22;25061;51.954;6.996;2022-12-29T17:08:46;8.50;99.90
39345;DHT22;25061;51.954;6.996;2022-12-29T17:11:26;8.50;99.90
39345;DHT22;25061;51.954;6.996;2022-12-29T17:16:49;8.40;99.90
39345;DHT22;25061;51.954;6.996;2022-12-29T17:19:20;8.40;99.90
39345;DHT22;25061;51.954;6.996;2022-12-29T17:21:47;8.40;99.90
39345;DHT22;25061;51.954;6.996;2022-12-29T17:24:25;8.40;99.90
39345;DHT22;25061;51.954;6.996;2022-12-29T17:26:58;8.40;99.90
39345;DHT22;25061;51.954;6.996;2022-12-29T17:29:37;8.30;99.90
39345;DHT22;25061;51.954;6.996;2022-12-29T17:32:12;8.30;99.90
39345;DHT22;25061;51.954;6.996;2022-12-29T17:34:59;8.30;99.90
39345;DHT22;25061;51.954;6.996;2022-12-29T17:37:28;8.20;99.90
39345;DHT22;25061;51.954;6.996;2022-12-29T17:39:54;8.20;99.90
39345;DHT22;25061;51.954;6.996;2022-12-29T17:42:20;8.10;99.90
39345;DHT22;25061;51.954;6.996;2022-12-29T17:44:45;8.10;99.90
39345;DHT22;25061;51.954;6.996;2022-12-29T17:47:11;8.00;99.90
39345;DHT22;25061;51.954;6.996;2022-12-29T17:49:37;7.90;99.90
39345;DHT22;25061;51.954;6.996;2022-12-29T17:52:03;7.90;99.90
39345;DHT22;25061;51.954;6.996;2022-12-29T17:54:29;7.90;99.90
39345;DHT22;25061;51.954;6.996;2022-12-29T17:56:56;7.90;99.90
39345;DHT22;25061;51.954;6.996;2022-12-29T17:59:21;7.90;99.90
39345;DHT22;25061;51.954;6.996;2022-12-29T18:01:48;7.90;99.90
39345;DHT22;25061;51.954;6.996;2022-12-29T18:04:18;7.80;99.90
39345;DHT22;25061;51.954;6.996;2022-12-29T18:06:45;7.80;99.90
39345;DHT22;25061;51.954;6.996;2022-12-29T18:09:12;7.80;99.90
39345;DHT22;25061;51.954;6.996;2022-12-29T18:11:39;7.80;99.90
39345;DHT22;25061;51.954;6.996;2022-12-29T18:14:12;7.70;99.90
39345;DHT22;25061;51.954;6.996;2022-12-29T18:16:38;7.70;99.90
39345;DHT22;25061;51.954;6.996;2022-12-29T18:19:04;7.70;99.90
39345;DHT22;25061;51.954;6.996;2022-12-29T18:21:30;7.70;99.90
39345;DHT22;25061;51.954;6.996;2022-12-29T18:23:55;7.60;99.90
39345;DHT22;25061;51.954;6.996;2022-12-29T18:26:26;7.60;99.90
39345;DHT22;25061;51.954;6.996;2022-12-29T18:28:53;7.50;99.90
39345;DHT22;25061;51.954;6.996;2022-12-29T18:31:22;7.50;99.90